createdAt,value
2023-06-23T00:01:29.418Z,7.30
2023-06-23T00:03:56.259Z,7.47
2023-06-23T00:06:23.024Z,6.88
2023-06-23T00:08:49.612Z,7.00
2023-06-23T00:11:16.456Z,7.15
2023-06-23T00:13:43.266Z,7.50
2023-06-23T00:16:11.630Z,7.63
2023-06-23T00:18:39.895Z,7.50
2023-06-23T00:21:07.446Z,7.70
2023-06-23T00:23:34.430Z,7.50
2023-06-23T00:26:04.910Z,9.00
2023-06-23T00:28:32.066Z,8.55
2023-06-23T00:30:58.829Z,8.57
2023-06-23T00:33:26.836Z,7.80
2023-06-23T00:35:53.473Z,7.80
2023-06-23T00:38:20.151Z,7.57
2023-06-23T00:40:46.937Z,7.75
2023-06-23T00:43:13.723Z,7.47
2023-06-23T00:45:40.843Z,7.97
2023-06-23T00:48:07.633Z,7.95
2023-06-23T00:50:36.164Z,8.55
2023-06-23T00:53:03.362Z,8.63
2023-06-23T00:55:30.229Z,8.25
2023-06-23T00:57:58.760Z,9.25
2023-06-23T01:00:27.298Z,8.65
2023-06-23T01:02:56.623Z,9.35
2023-06-23T01:05:27.496Z,9.32
2023-06-23T01:08:01.321Z,8.60
2023-06-23T01:10:35.109Z,10.30
2023-06-23T01:13:11.326Z,9.73
2023-06-23T01:15:42.849Z,9.88
2023-06-23T01:18:22.494Z,10.07
2023-06-23T01:20:51.886Z,10.65
2023-06-23T01:23:57.192Z,10.07
2023-06-23T01:26:42.938Z,9.95
2023-06-23T01:29:12.059Z,11.00
2023-06-23T01:31:44.630Z,10.60
2023-06-23T01:34:19.291Z,10.40
2023-06-23T01:36:51.649Z,10.02
2023-06-23T01:39:22.722Z,10.60
2023-06-23T01:41:53.952Z,10.60
2023-06-23T01:44:25.851Z,10.80
2023-06-23T01:46:55.374Z,10.40
2023-06-23T01:49:25.252Z,11.75
2023-06-23T01:51:53.719Z,11.10
2023-06-23T01:54:22.218Z,11.15
2023-06-23T01:56:51.142Z,11.35
2023-06-23T01:59:20.175Z,11.85
2023-06-23T02:01:49.696Z,12.40
2023-06-23T02:04:17.793Z,12.55
2023-06-23T02:06:48.885Z,12.45
2023-06-23T02:09:25.320Z,13.52
2023-06-23T02:11:53.417Z,12.95
2023-06-23T02:14:22.034Z,13.07
2023-06-23T02:16:52.886Z,13.88
2023-06-23T02:19:21.945Z,13.40
2023-06-23T02:21:49.896Z,15.18
2023-06-23T02:24:18.818Z,13.90
2023-06-23T02:26:47.195Z,14.18
2023-06-23T02:29:16.796Z,15.00
2023-06-23T02:31:45.286Z,14.73
2023-06-23T02:34:13.633Z,14.90
2023-06-23T02:36:46.744Z,15.57
2023-06-23T02:39:16.891Z,15.52
2023-06-23T02:41:46.445Z,16.02
2023-06-23T02:44:15.830Z,15.88
2023-06-23T02:46:45.659Z,16.52
2023-06-23T02:49:17.875Z,16.52
2023-06-23T02:51:47.243Z,16.60
2023-06-23T02:54:17.876Z,16.58
2023-06-23T02:56:46.841Z,17.20
2023-06-23T02:59:17.219Z,17.80
2023-06-23T03:01:47.601Z,17.45
2023-06-23T03:04:15.649Z,17.38
2023-06-23T03:06:42.368Z,17.95
2023-06-23T03:09:12.156Z,17.77
2023-06-23T03:11:39.089Z,19.20
2023-06-23T03:14:07.269Z,19.35
2023-06-23T03:16:39.692Z,18.45
2023-06-23T03:19:17.145Z,19.40
2023-06-23T03:21:49.048Z,20.58
2023-06-23T03:24:18.023Z,19.90
2023-06-23T03:26:49.326Z,19.25
2023-06-23T03:29:19.609Z,20.60
2023-06-23T03:31:48.339Z,18.85
2023-06-23T03:34:17.389Z,19.05
2023-06-23T03:36:47.123Z,20.40
2023-06-23T03:39:18.370Z,19.27
2023-06-23T03:41:46.107Z,21.13
2023-06-23T03:44:20.884Z,20.02
2023-06-23T03:46:52.581Z,20.23
2023-06-23T03:49:23.144Z,20.77
2023-06-23T03:51:53.959Z,21.02
2023-06-23T03:54:21.490Z,21.95
2023-06-23T03:56:50.140Z,21.67
2023-06-23T03:59:19.090Z,22.42
2023-06-23T04:01:48.531Z,22.65
2023-06-23T04:04:18.458Z,22.33
2023-06-23T04:06:48.498Z,22.40
2023-06-23T04:09:19.659Z,21.83
2023-06-23T04:11:47.961Z,23.95
2023-06-23T04:14:15.768Z,22.27
2023-06-23T04:16:42.912Z,23.25
2023-06-23T04:19:13.246Z,24.08
2023-06-23T04:21:41.213Z,23.30
2023-06-23T04:24:09.022Z,22.50
2023-06-23T04:26:38.331Z,25.05
2023-06-23T04:29:08.351Z,23.98
2023-06-23T04:31:36.462Z,24.00
2023-06-23T04:34:03.187Z,26.02
2023-06-23T04:36:35.895Z,24.80
2023-06-23T04:39:09.343Z,26.83
2023-06-23T04:41:41.327Z,26.25
2023-06-23T04:44:11.589Z,27.25
2023-06-23T04:46:41.575Z,27.17
2023-06-23T04:49:09.767Z,26.88
2023-06-23T04:51:40.504Z,27.63
2023-06-23T04:54:12.063Z,29.13
2023-06-23T04:56:42.456Z,28.10
2023-06-23T04:59:10.632Z,28.58
2023-06-23T05:01:39.354Z,29.20
2023-06-23T05:04:07.577Z,31.67
2023-06-23T05:06:36.979Z,29.55
2023-06-23T05:09:05.336Z,31.15
2023-06-23T05:11:33.341Z,31.02
2023-06-23T05:14:04.526Z,29.90
2023-06-23T05:16:31.961Z,33.27
2023-06-23T05:19:01.497Z,30.25
2023-06-23T05:21:30.614Z,30.75
2023-06-23T05:23:59.204Z,31.83
2023-06-23T05:26:27.484Z,30.58
2023-06-23T05:28:55.357Z,30.98
2023-06-23T05:31:26.894Z,31.33
2023-06-23T05:33:55.737Z,31.50
2023-06-23T05:36:23.530Z,31.45
2023-06-23T05:38:53.547Z,31.52
2023-06-23T05:41:20.495Z,31.77
2023-06-23T05:43:47.394Z,32.20
2023-06-23T05:46:17.336Z,32.58
2023-06-23T05:48:49.838Z,32.00
2023-06-23T05:51:21.073Z,31.40
2023-06-23T05:53:54.544Z,32.53
2023-06-23T05:56:24.210Z,32.25
2023-06-23T05:58:57.236Z,32.33
2023-06-23T06:01:25.733Z,33.83
2023-06-23T06:04:00.888Z,32.22
2023-06-23T06:06:29.855Z,32.35
2023-06-23T06:08:57.730Z,33.05
2023-06-23T06:11:28.066Z,32.28
2023-06-23T06:13:57.017Z,32.53
2023-06-23T06:16:24.946Z,32.88
2023-06-23T06:18:54.534Z,32.40
2023-06-23T06:21:22.482Z,33.00
2023-06-23T06:23:52.750Z,31.83
2023-06-23T06:26:20.972Z,31.95
2023-06-23T06:28:51.037Z,30.55
2023-06-23T06:31:19.849Z,30.95
2023-06-23T06:33:49.390Z,31.65
2023-06-23T06:36:19.562Z,30.90
2023-06-23T06:38:48.298Z,30.27
2023-06-23T06:41:16.252Z,30.42
2023-06-23T06:43:42.986Z,30.35
2023-06-23T06:46:10.679Z,29.60
2023-06-23T06:48:38.338Z,29.38
2023-06-23T06:51:06.424Z,28.92
2023-06-23T06:53:34.798Z,28.50
2023-06-23T06:56:01.694Z,27.52
2023-06-23T06:58:28.616Z,27.88
2023-06-23T07:00:56.056Z,26.63
2023-06-23T07:03:23.430Z,25.80
2023-06-23T07:05:50.214Z,27.52
2023-06-23T07:08:17.098Z,25.27
2023-06-23T07:10:45.079Z,26.88
2023-06-23T07:13:11.677Z,26.05
2023-06-23T07:15:38.376Z,25.48
2023-06-23T07:18:05.090Z,24.92
2023-06-23T07:20:31.954Z,24.58
2023-06-23T07:22:58.919Z,24.33
2023-06-23T07:25:25.499Z,25.77
2023-06-23T07:27:53.827Z,24.95
2023-06-23T07:30:20.458Z,23.85
2023-06-23T07:32:47.328Z,23.35
2023-06-23T07:35:14.059Z,23.67
2023-06-23T07:37:40.814Z,21.52
2023-06-23T07:40:09.426Z,19.40
2023-06-23T07:42:36.274Z,21.33
2023-06-23T07:45:04.907Z,18.92
2023-06-23T07:47:31.743Z,18.23
2023-06-23T07:49:58.527Z,17.98
2023-06-23T07:52:25.299Z,17.55
2023-06-23T07:54:51.915Z,16.60
2023-06-23T07:57:18.550Z,16.67
2023-06-23T07:59:45.205Z,16.90
2023-06-23T08:02:14.151Z,15.88
2023-06-23T08:04:41.154Z,16.60
2023-06-23T08:07:07.922Z,15.95
2023-06-23T08:09:34.591Z,14.07
2023-06-23T08:12:01.273Z,15.95
2023-06-23T08:14:28.074Z,15.65
2023-06-23T08:16:54.893Z,15.48
2023-06-23T08:19:23.032Z,13.80
2023-06-23T08:21:49.801Z,14.13
2023-06-23T08:24:16.600Z,15.20
2023-06-23T08:26:43.239Z,14.45
2023-06-23T08:29:11.018Z,13.02
2023-06-23T08:31:38.138Z,13.50
2023-06-23T08:34:05.017Z,14.10
2023-06-23T08:36:33.135Z,14.20
2023-06-23T08:38:59.863Z,13.38
2023-06-23T08:41:26.815Z,13.55
2023-06-23T08:43:54.868Z,13.65
2023-06-23T08:46:29.242Z,13.57
2023-06-23T08:48:58.382Z,12.02
2023-06-23T08:51:26.264Z,12.60
2023-06-23T08:53:54.666Z,10.20
2023-06-23T08:56:21.514Z,11.00
2023-06-23T08:58:48.361Z,10.63
2023-06-23T09:01:15.280Z,8.55
2023-06-23T09:03:42.257Z,8.77
2023-06-23T09:06:09.124Z,9.27
2023-06-23T09:08:35.949Z,7.60
2023-06-23T09:11:04.145Z,7.45
2023-06-23T09:13:35.372Z,8.90
2023-06-23T09:16:03.674Z,8.07
2023-06-23T09:18:31.878Z,7.43
2023-06-23T09:21:00.920Z,7.13
2023-06-23T09:23:27.755Z,7.22
2023-06-23T09:25:56.045Z,8.18
2023-06-23T09:28:27.340Z,7.88
2023-06-23T09:30:56.057Z,6.63
2023-06-23T09:33:23.383Z,7.25
2023-06-23T09:35:51.678Z,7.78
2023-06-23T09:38:19.090Z,7.72
2023-06-23T09:40:46.024Z,7.40
2023-06-23T09:43:14.357Z,7.28
2023-06-23T09:45:42.443Z,6.57
2023-06-23T09:48:17.581Z,7.07
2023-06-23T09:50:44.262Z,6.15
2023-06-23T09:53:11.168Z,7.15
2023-06-23T09:55:37.795Z,7.20
2023-06-23T09:58:04.749Z,7.10
2023-06-23T10:00:32.284Z,6.13
2023-06-23T10:03:00.659Z,5.68
2023-06-23T10:05:35.041Z,5.00
2023-06-23T10:08:10.011Z,4.45
2023-06-23T10:10:46.476Z,4.45
2023-06-23T10:13:13.510Z,4.63
2023-06-23T10:15:42.715Z,4.43
2023-06-23T10:18:11.117Z,5.57
2023-06-23T10:20:38.223Z,5.20
2023-06-23T10:23:05.684Z,4.28
2023-06-23T10:25:36.103Z,5.20
2023-06-23T10:28:08.858Z,4.80
2023-06-23T10:30:36.082Z,4.20
2023-06-23T10:33:04.082Z,3.20
2023-06-23T10:35:34.533Z,3.05
2023-06-23T10:38:05.360Z,3.63
2023-06-23T10:40:38.436Z,3.47
2023-06-23T10:43:06.619Z,4.13
2023-06-23T10:45:33.631Z,4.03
2023-06-23T10:48:01.544Z,4.70
2023-06-23T10:50:28.924Z,4.47
2023-06-23T10:52:57.772Z,4.28
2023-06-23T10:55:35.392Z,3.80
2023-06-23T10:58:09.371Z,2.88
2023-06-23T11:00:36.322Z,3.25
2023-06-23T11:03:06.057Z,3.20
2023-06-23T11:05:32.868Z,2.80
2023-06-23T11:08:05.680Z,3.65
2023-06-23T11:10:56.765Z,3.30
2023-06-23T11:13:25.844Z,3.45
2023-06-23T11:15:54.873Z,2.97
2023-06-23T11:18:22.973Z,2.95
2023-06-23T11:20:50.419Z,3.20
2023-06-23T11:23:19.024Z,3.35
2023-06-23T11:25:47.207Z,2.95
2023-06-23T11:28:28.219Z,3.55
2023-06-23T11:31:02.465Z,2.92
2023-06-23T11:33:30.116Z,3.72
2023-06-23T11:35:59.838Z,3.38
2023-06-23T11:38:28.325Z,3.75
2023-06-23T11:40:56.342Z,3.33
2023-06-23T11:43:26.282Z,3.28
2023-06-23T11:45:56.162Z,3.33
2023-06-23T11:48:26.365Z,3.58
2023-06-23T11:50:54.522Z,3.90
2023-06-23T11:53:21.432Z,4.20
2023-06-23T11:55:51.056Z,4.10
2023-06-23T11:58:18.393Z,4.20
2023-06-23T12:00:45.035Z,4.30
2023-06-23T12:03:12.865Z,4.43
2023-06-23T12:05:39.719Z,4.43
2023-06-23T12:08:07.033Z,3.63
2023-06-23T12:10:36.981Z,3.78
2023-06-23T12:13:07.292Z,3.45
2023-06-23T12:15:36.859Z,3.85
2023-06-23T12:18:03.766Z,3.08
2023-06-23T12:20:30.747Z,3.55
2023-06-23T12:23:02.698Z,3.38
2023-06-23T12:25:31.673Z,2.70
2023-06-23T12:27:58.699Z,2.58
2023-06-23T12:30:27.425Z,2.85
2023-06-23T12:32:54.828Z,2.40
2023-06-23T12:35:21.817Z,2.08
2023-06-23T12:37:49.681Z,2.60
2023-06-23T12:40:30.700Z,2.50
2023-06-23T12:42:57.787Z,2.70
2023-06-23T12:45:26.060Z,2.53
2023-06-23T12:47:52.847Z,3.03
2023-06-23T12:50:37.211Z,2.58
2023-06-23T12:53:05.318Z,2.60
2023-06-23T12:55:32.288Z,2.20
2023-06-23T12:57:59.349Z,2.50
2023-06-23T13:00:27.531Z,1.90
2023-06-23T13:02:54.373Z,2.40
2023-06-23T13:05:21.324Z,2.63
2023-06-23T13:07:48.045Z,2.70
2023-06-23T13:10:14.942Z,2.28
2023-06-23T13:12:41.691Z,1.77
2023-06-23T13:15:09.244Z,2.28
2023-06-23T13:17:37.412Z,2.03
2023-06-23T13:20:04.384Z,2.30
2023-06-23T13:22:31.088Z,2.15
2023-06-23T13:24:57.766Z,2.33
2023-06-23T13:27:24.639Z,2.38
2023-06-23T13:29:51.874Z,2.40
2023-06-23T13:32:18.576Z,2.03
2023-06-23T13:34:46.751Z,2.10
2023-06-23T13:37:13.671Z,2.05
2023-06-23T13:39:40.393Z,2.00
2023-06-23T13:42:08.306Z,2.15
2023-06-23T13:44:35.075Z,1.90
2023-06-23T13:47:01.746Z,2.35
2023-06-23T13:49:28.495Z,2.22
2023-06-23T13:51:56.505Z,2.33
2023-06-23T13:54:23.173Z,2.22
2023-06-23T13:56:50.114Z,2.38
2023-06-23T13:59:16.816Z,2.00
2023-06-23T14:01:43.509Z,2.10
2023-06-23T14:04:10.237Z,2.03
2023-06-23T14:06:37.012Z,2.13
2023-06-23T14:09:05.131Z,2.38
2023-06-23T14:11:31.817Z,1.80
2023-06-23T14:13:58.533Z,2.10
2023-06-23T14:16:25.228Z,2.35
2023-06-23T14:18:51.920Z,2.03
2023-06-23T14:21:18.634Z,2.20
2023-06-23T14:23:45.262Z,2.55
2023-06-23T14:26:13.290Z,1.85
2023-06-23T14:28:39.964Z,2.10
2023-06-23T14:31:06.652Z,1.85
2023-06-23T14:33:33.296Z,2.20
2023-06-23T14:35:59.999Z,2.35
2023-06-23T14:38:26.680Z,2.10
2023-06-23T14:40:53.359Z,2.17
2023-06-23T14:43:21.459Z,1.95
2023-06-23T14:45:50.857Z,2.50
2023-06-23T14:48:18.612Z,1.88
2023-06-23T14:50:45.355Z,1.70
2023-06-23T14:53:12.129Z,1.98
2023-06-23T14:55:38.780Z,1.98
2023-06-23T14:58:05.778Z,2.05
2023-06-23T15:00:34.206Z,2.00
2023-06-23T15:03:00.916Z,2.10
2023-06-23T15:05:27.637Z,2.20
2023-06-23T15:07:55.462Z,2.05
2023-06-23T15:10:22.277Z,2.30
2023-06-23T15:12:48.916Z,2.30
2023-06-23T15:15:15.665Z,2.10
2023-06-23T15:17:43.822Z,1.88
2023-06-23T15:20:11.365Z,1.80
2023-06-23T15:22:38.197Z,1.98
2023-06-23T15:25:05.418Z,1.98
2023-06-23T15:27:32.059Z,1.80
2023-06-23T15:29:58.744Z,2.22
2023-06-23T15:32:25.440Z,2.22
2023-06-23T15:34:53.551Z,1.77
2023-06-23T15:37:20.275Z,2.33
2023-06-23T15:39:46.970Z,2.13
2023-06-23T15:42:13.719Z,2.38
2023-06-23T15:44:40.487Z,2.05
2023-06-23T15:47:07.708Z,2.20
2023-06-23T15:49:34.442Z,2.28
2023-06-23T15:52:02.529Z,2.00
2023-06-23T15:54:30.943Z,2.10
2023-06-23T15:56:58.994Z,2.15
2023-06-23T15:59:25.774Z,2.05
2023-06-23T16:01:52.389Z,2.83
2023-06-23T16:04:19.400Z,2.20
2023-06-23T16:06:46.344Z,2.20
2023-06-23T16:09:16.301Z,1.90
2023-06-23T16:11:43.138Z,1.90
2023-06-23T16:14:09.842Z,2.22
2023-06-23T16:16:36.650Z,1.95
2023-06-23T16:19:03.341Z,1.90
2023-06-23T16:21:30.807Z,2.20
2023-06-23T16:23:57.641Z,2.47
2023-06-23T16:26:25.794Z,1.98
2023-06-23T16:28:52.458Z,1.95
2023-06-23T16:31:19.215Z,2.08
2023-06-23T16:33:45.931Z,2.33
2023-06-23T16:36:12.562Z,2.13
2023-06-23T16:38:39.246Z,1.92
2023-06-23T16:41:05.990Z,2.08
2023-06-23T16:43:35.512Z,2.17
2023-06-23T16:46:05.261Z,2.47
2023-06-23T16:48:32.156Z,2.30
2023-06-23T16:50:58.900Z,2.13
2023-06-23T16:53:25.507Z,2.15
2023-06-23T16:55:52.182Z,2.17
2023-06-23T16:58:18.783Z,2.40
2023-06-23T17:00:46.843Z,2.40
2023-06-23T17:03:13.646Z,2.53
2023-06-23T17:05:40.391Z,2.10
2023-06-23T17:08:07.060Z,2.38
2023-06-23T17:10:33.802Z,2.22
2023-06-23T17:13:00.548Z,2.40
2023-06-23T17:15:27.232Z,2.90
2023-06-23T17:17:55.624Z,2.35
2023-06-23T17:20:22.345Z,2.25
2023-06-23T17:22:49.028Z,2.25
2023-06-23T17:25:15.775Z,1.90
2023-06-23T17:27:42.436Z,2.15
2023-06-23T17:30:09.506Z,2.08
2023-06-23T17:32:36.384Z,2.70
2023-06-23T17:35:05.131Z,2.42
2023-06-23T17:37:31.854Z,2.60
2023-06-23T17:39:58.550Z,2.33
2023-06-23T17:42:25.222Z,2.40
2023-06-23T17:44:51.863Z,2.53
2023-06-23T17:47:18.574Z,2.10
2023-06-23T17:49:45.421Z,2.28
2023-06-23T17:52:13.506Z,2.33
2023-06-23T17:54:40.108Z,2.42
2023-06-23T17:57:06.876Z,2.20
2023-06-23T17:59:33.568Z,2.40
2023-06-23T18:02:00.227Z,2.40
2023-06-23T18:04:27.701Z,2.50
2023-06-23T18:06:54.806Z,2.22
2023-06-23T18:09:22.864Z,2.40
2023-06-23T18:11:50.857Z,2.28
2023-06-23T18:14:17.763Z,2.38
2023-06-23T18:16:44.558Z,2.08
2023-06-23T18:19:12.436Z,2.58
2023-06-23T18:21:39.158Z,2.42
2023-06-23T18:24:06.258Z,2.60
2023-06-23T18:26:34.233Z,2.40
2023-06-23T18:29:00.946Z,2.40
2023-06-23T18:31:27.738Z,2.45
2023-06-23T18:33:54.429Z,2.50
2023-06-23T18:36:21.019Z,2.75
2023-06-23T18:38:48.086Z,2.33
2023-06-23T18:41:14.737Z,2.55
2023-06-23T18:43:42.841Z,2.42
2023-06-23T18:46:09.519Z,2.30
2023-06-23T18:48:36.209Z,2.13
2023-06-23T18:51:03.021Z,3.03
2023-06-23T18:53:29.929Z,2.42
2023-06-23T18:55:56.571Z,2.22
2023-06-23T18:58:23.368Z,2.60
2023-06-23T19:00:51.629Z,2.45
2023-06-23T19:03:18.425Z,2.70
2023-06-23T19:05:45.377Z,2.85
2023-06-23T19:08:12.059Z,2.47
2023-06-23T19:10:38.853Z,2.92
2023-06-23T19:13:05.555Z,2.53
2023-06-23T19:15:32.376Z,2.80
2023-06-23T19:18:00.470Z,2.70
2023-06-23T19:20:27.216Z,2.80
2023-06-23T19:22:54.092Z,2.42
2023-06-23T19:25:20.873Z,2.60
2023-06-23T19:27:47.519Z,3.00
2023-06-23T19:30:15.280Z,3.00
2023-06-23T19:32:42.002Z,3.10
2023-06-23T19:35:10.070Z,2.85
2023-06-23T19:37:36.726Z,2.95
2023-06-23T19:40:04.165Z,2.85
2023-06-23T19:42:30.817Z,3.00
2023-06-23T19:44:57.574Z,2.92
2023-06-23T19:47:24.461Z,2.90
2023-06-23T19:49:51.319Z,3.53
2023-06-23T19:52:19.398Z,3.08
2023-06-23T19:54:46.063Z,2.97
2023-06-23T19:57:12.708Z,3.33
2023-06-23T19:59:39.447Z,2.60
2023-06-23T20:02:07.111Z,3.10
2023-06-23T20:04:33.785Z,2.83
2023-06-23T20:07:00.533Z,3.25
2023-06-23T20:09:28.632Z,2.85
2023-06-23T20:11:55.347Z,3.45
2023-06-23T20:14:22.073Z,3.25
2023-06-23T20:16:49.224Z,3.28
2023-06-23T20:19:15.962Z,3.25
2023-06-23T20:21:43.333Z,3.60
2023-06-23T20:24:11.556Z,3.63
2023-06-23T20:26:40.763Z,3.60
2023-06-23T20:29:07.489Z,3.50
2023-06-23T20:31:34.089Z,3.78
2023-06-23T20:34:00.803Z,3.90
2023-06-23T20:36:27.624Z,4.10
2023-06-23T20:38:54.352Z,3.55
2023-06-23T20:41:20.964Z,4.07
2023-06-23T20:43:48.994Z,3.88
2023-06-23T20:46:15.748Z,3.78
2023-06-23T20:48:42.591Z,4.50
2023-06-23T20:51:09.229Z,4.53
2023-06-23T20:53:36.108Z,4.03
2023-06-23T20:56:02.776Z,3.90
2023-06-23T20:58:29.701Z,4.10
2023-06-23T21:00:57.816Z,3.83
2023-06-23T21:03:24.620Z,4.35
2023-06-23T21:05:51.340Z,4.43
2023-06-23T21:08:17.983Z,4.85
2023-06-23T21:10:44.972Z,4.68
2023-06-23T21:13:11.812Z,4.30
2023-06-23T21:15:38.495Z,4.70
2023-06-23T21:18:06.660Z,4.47
2023-06-23T21:20:33.751Z,4.82
2023-06-23T21:23:00.867Z,4.63
2023-06-23T21:25:29.523Z,4.85
2023-06-23T21:27:56.449Z,4.90
2023-06-23T21:30:23.230Z,4.93
2023-06-23T21:32:49.912Z,4.95
2023-06-23T21:35:18.428Z,4.93
2023-06-23T21:37:46.291Z,4.80
2023-06-23T21:40:15.486Z,4.68
2023-06-23T21:42:42.135Z,5.28
2023-06-23T21:45:09.427Z,4.80
2023-06-23T21:47:36.085Z,5.10
2023-06-23T21:50:02.820Z,5.55
2023-06-23T21:52:30.925Z,6.18
2023-06-23T21:54:57.623Z,6.22
2023-06-23T21:57:24.578Z,6.22
2023-06-23T21:59:51.194Z,6.05
2023-06-23T22:02:17.947Z,5.95
2023-06-23T22:04:44.638Z,6.13
2023-06-23T22:07:11.517Z,6.20
2023-06-23T22:09:39.617Z,6.30
2023-06-23T22:12:07.715Z,6.28
2023-06-23T22:14:34.557Z,7.40
2023-06-23T22:17:01.246Z,6.68
2023-06-23T22:19:28.018Z,6.78
2023-06-23T22:21:54.752Z,6.45
2023-06-23T22:24:21.681Z,6.97
2023-06-23T22:26:49.792Z,7.22
2023-06-23T22:29:17.104Z,8.45
2023-06-23T22:31:44.000Z,7.72
2023-06-23T22:34:10.994Z,7.13
2023-06-23T22:36:37.763Z,7.88
2023-06-23T22:39:04.783Z,7.18
2023-06-23T22:41:31.818Z,7.22
2023-06-23T22:43:59.877Z,7.35
2023-06-23T22:46:26.647Z,6.85
2023-06-23T22:48:53.326Z,6.68
2023-06-23T22:51:20.032Z,7.18
2023-06-23T22:53:46.703Z,7.90
2023-06-23T22:56:13.442Z,7.20
2023-06-23T22:58:40.177Z,7.40
2023-06-23T23:01:08.174Z,6.85
2023-06-23T23:03:34.908Z,7.00
2023-06-23T23:06:01.731Z,7.18
2023-06-23T23:08:28.429Z,8.38
2023-06-23T23:10:55.139Z,7.88
2023-06-23T23:13:22.263Z,8.35
2023-06-23T23:15:48.951Z,8.45
2023-06-23T23:18:17.068Z,8.50
2023-06-23T23:20:43.800Z,8.02
2023-06-23T23:23:10.544Z,8.45
2023-06-23T23:25:37.303Z,8.57
2023-06-23T23:28:04.135Z,8.25
2023-06-23T23:30:30.956Z,8.27
2023-06-23T23:32:57.631Z,8.55
2023-06-23T23:35:25.708Z,7.22
2023-06-23T23:37:52.422Z,7.45
2023-06-23T23:40:19.100Z,8.20
2023-06-23T23:42:45.962Z,7.90
2023-06-23T23:45:13.694Z,8.10
2023-06-23T23:47:41.424Z,7.80
2023-06-23T23:50:08.872Z,8.02
2023-06-23T23:52:36.952Z,7.82
2023-06-23T23:55:04.034Z,7.97
2023-06-23T23:57:30.675Z,8.68
2023-06-23T23:59:57.372Z,8.88
